sensor_id;sensor_type;location;lat;lon;timestamp;temperature;humidity
23544;DHT22;11950;51.230;4.012;2022-12-07T00:01:18;7.20;99.90
23544;DHT22;11950;51.230;4.012;2022-12-07T00:03:45;7.10;99.90
23544;DHT22;11950;51.230;4.012;2022-12-07T00:06:14;7.00;99.90
23544;DHT22;11950;51.230;4.012;2022-12-07T00:08:41;7.00;99.90
23544;DHT22;11950;51.230;4.012;2022-12-07T00:11:26;7.00;99.90
23544;DHT22;11950;51.230;4.012;2022-12-07T00:13:55;6.90;99.90
23544;DHT22;11950;51.230;4.012;2022-12-07T00:16:23;6.80;99.90
23544;DHT22;11950;51.230;4.012;2022-12-07T00:18:50;6.80;99.90
23544;DHT22;11950;51.230;4.012;2022-12-07T00:21:18;6.80;99.90
23544;DHT22;11950;51.230;4.012;2022-12-07T00:23:47;6.80;99.90
23544;DHT22;11950;51.230;4.012;2022-12-07T00:26:19;6.80;99.90
23544;DHT22;11950;51.230;4.012;2022-12-07T00:28:54;6.80;99.90
23544;DHT22;11950;51.230;4.012;2022-12-07T00:31:22;6.90;99.90
23544;DHT22;11950;51.230;4.012;2022-12-07T00:33:49;6.90;99.90
23544;DHT22;11950;51.230;4.012;2022-12-07T00:36:19;6.90;99.90
23544;DHT22;11950;51.230;4.012;2022-12-07T00:38:46;6.90;99.90
23544;DHT22;11950;51.230;4.012;2022-12-07T00:41:18;6.90;99.90
23544;DHT22;11950;51.230;4.012;2022-12-07T00:43:46;6.90;99.90
23544;DHT22;11950;51.230;4.012;2022-12-07T00:46:13;6.90;99.90
23544;DHT22;11950;51.230;4.012;2022-12-07T00:48:40;6.90;99.90
23544;DHT22;11950;51.230;4.012;2022-12-07T00:51:06;6.90;99.90
23544;DHT22;11950;51.230;4.012;2022-12-07T00:53:37;6.90;99.90
23544;DHT22;11950;51.230;4.012;2022-12-07T00:56:15;6.90;99.90
23544;DHT22;11950;51.230;4.012;2022-12-07T00:58:42;6.90;99.90
23544;DHT22;11950;51.230;4.012;2022-12-07T01:01:09;7.00;99.90
23544;DHT22;11950;51.230;4.012;2022-12-07T01:03:36;6.90;99.90
23544;DHT22;11950;51.230;4.012;2022-12-07T01:06:03;6.90;99.90
23544;DHT22;11950;51.230;4.012;2022-12-07T01:08:30;7.00;99.90
23544;DHT22;11950;51.230;4.012;2022-12-07T01:11:05;7.00;99.90
23544;DHT22;11950;51.230;4.012;2022-12-07T01:13:33;7.00;99.90
23544;DHT22;11950;51.230;4.012;2022-12-07T01:16:02;7.10;99.90
23544;DHT22;11950;51.230;4.012;2022-12-07T01:18:30;7.00;99.90
23544;DHT22;11950;51.230;4.012;2022-12-07T01:21:02;7.10;99.90
23544;DHT22;11950;51.230;4.012;2022-12-07T01:23:31;7.00;99.90
23544;DHT22;11950;51.230;4.012;2022-12-07T01:25:58;7.00;99.90
23544;DHT22;11950;51.230;4.012;2022-12-07T01:28:25;6.90;99.90
23544;DHT22;11950;51.230;4.012;2022-12-07T01:30:59;6.90;99.90
23544;DHT22;11950;51.230;4.012;2022-12-07T01:33:28;6.90;99.90
23544;DHT22;11950;51.230;4.012;2022-12-07T01:35:59;6.80;99.90
23544;DHT22;11950;51.230;4.012;2022-12-07T01:38:26;6.70;99.90
23544;DHT22;11950;51.230;4.012;2022-12-07T01:40:56;6.60;99.90
23544;DHT22;11950;51.230;4.012;2022-12-07T01:43:23;6.60;99.90
23544;DHT22;11950;51.230;4.012;2022-12-07T01:45:51;6.60;99.90
23544;DHT22;11950;51.230;4.012;2022-12-07T01:48:20;6.60;99.90
23544;DHT22;11950;51.230;4.012;2022-12-07T01:50:49;6.60;99.90
23544;DHT22;11950;51.230;4.012;2022-12-07T01:53:17;6.60;99.90
23544;DHT22;11950;51.230;4.012;2022-12-07T01:55:45;6.50;99.90
23544;DHT22;11950;51.230;4.012;2022-12-07T01:58:14;6.50;99.90
23544;DHT22;11950;51.230;4.012;2022-12-07T02:00:42;6.50;99.90
23544;DHT22;11950;51.230;4.012;2022-12-07T02:05:37;6.50;99.90
23544;DHT22;11950;51.230;4.012;2022-12-07T02:08:04;6.50;99.90
23544;DHT22;11950;51.230;4.012;2022-12-07T02:10:31;6.50;99.90
23544;DHT22;11950;51.230;4.012;2022-12-07T02:13:16;6.50;99.90
23544;DHT22;11950;51.230;4.012;2022-12-07T02:29:43;6.50;99.90
23544;DHT22;11950;51.230;4.012;2022-12-07T02:32:27;6.50;99.90
23544;DHT22;11950;51.230;4.012;2022-12-07T02:35:09;6.50;99.90
23544;DHT22;11950;51.230;4.012;2022-12-07T02:40:20;6.50;99.90
23544;DHT22;11950;51.230;4.012;2022-12-07T02:42:53;6.60;99.90
23544;DHT22;11950;51.230;4.012;2022-12-07T02:45:22;6.60;99.90
23544;DHT22;11950;51.230;4.012;2022-12-07T02:47:51;6.60;99.90
23544;DHT22;11950;51.230;4.012;2022-12-07T02:50:21;6.60;99.90
23544;DHT22;11950;51.230;4.012;2022-12-07T02:52:47;6.60;99.90
23544;DHT22;11950;51.230;4.012;2022-12-07T02:55:15;6.60;99.90
23544;DHT22;11950;51.230;4.012;2022-12-07T03:00:27;6.60;99.90
23544;DHT22;11950;51.230;4.012;2022-12-07T03:03:00;6.50;99.90
23544;DHT22;11950;51.230;4.012;2022-12-07T03:13:25;6.30;99.90
23544;DHT22;11950;51.230;4.012;2022-12-07T03:18:50;6.30;99.90
23544;DHT22;11950;51.230;4.012;2022-12-07T03:21:33;6.30;99.90
23544;DHT22;11950;51.230;4.012;2022-12-07T03:24:12;6.30;99.90
23544;DHT22;11950;51.230;4.012;2022-12-07T03:26:44;6.40;99.90
23544;DHT22;11950;51.230;4.012;2022-12-07T03:29:24;6.40;99.90
23544;DHT22;11950;51.230;4.012;2022-12-07T03:31:59;6.40;99.90
23544;DHT22;11950;51.230;4.012;2022-12-07T03:34:34;6.50;99.90
23544;DHT22;11950;51.230;4.012;2022-12-07T03:37:07;6.40;99.90
23544;DHT22;11950;51.230;4.012;2022-12-07T03:39:41;6.40;99.90
23544;DHT22;11950;51.230;4.012;2022-12-07T03:42:11;6.40;99.90
23544;DHT22;11950;51.230;4.012;2022-12-07T03:44:40;6.40;99.90
23544;DHT22;11950;51.230;4.012;2022-12-07T03:47:21;6.30;99.90
23544;DHT22;11950;51.230;4.012;2022-12-07T03:49:52;6.30;99.90
23544;DHT22;11950;51.230;4.012;2022-12-07T03:57:31;6.20;99.90
23544;DHT22;11950;51.230;4.012;2022-12-07T03:59:58;6.10;99.90
23544;DHT22;11950;51.230;4.012;2022-12-07T04:02:27;6.10;99.90
23544;DHT22;11950;51.230;4.012;2022-12-07T04:04:55;6.00;99.90
23544;DHT22;11950;51.230;4.012;2022-12-07T04:07:21;5.90;99.90
23544;DHT22;11950;51.230;4.012;2022-12-07T04:09:48;5.90;99.90
23544;DHT22;11950;51.230;4.012;2022-12-07T04:12:14;5.80;99.90
23544;DHT22;11950;51.230;4.012;2022-12-07T04:14:40;5.70;99.90
23544;DHT22;11950;51.230;4.012;2022-12-07T04:17:06;5.70;99.90
23544;DHT22;11950;51.230;4.012;2022-12-07T04:19:34;5.60;99.90
23544;DHT22;11950;51.230;4.012;2022-12-07T04:22:02;5.50;99.90
23544;DHT22;11950;51.230;4.012;2022-12-07T04:24:28;5.30;99.90
23544;DHT22;11950;51.230;4.012;2022-12-07T04:26:55;5.50;99.90
23544;DHT22;11950;51.230;4.012;2022-12-07T04:29:22;5.40;99.90
23544;DHT22;11950;51.230;4.012;2022-12-07T04:31:48;5.40;99.90
23544;DHT22;11950;51.230;4.012;2022-12-07T04:34:16;5.30;99.90
23544;DHT22;11950;51.230;4.012;2022-12-07T04:36:42;5.20;99.90
23544;DHT22;11950;51.230;4.012;2022-12-07T04:39:23;5.20;99.90
23544;DHT22;11950;51.230;4.012;2022-12-07T04:41:49;5.20;99.90
23544;DHT22;11950;51.230;4.012;2022-12-07T04:44:16;5.20;99.90
23544;DHT22;11950;51.230;4.012;2022-12-07T04:46:43;5.30;99.90
23544;DHT22;11950;51.230;4.012;2022-12-07T04:49:10;5.30;99.90
23544;DHT22;11950;51.230;4.012;2022-12-07T04:51:37;5.30;99.90
23544;DHT22;11950;51.230;4.012;2022-12-07T04:54:04;5.40;99.90
23544;DHT22;11950;51.230;4.012;2022-12-07T04:56:30;5.40;99.90
23544;DHT22;11950;51.230;4.012;2022-12-07T04:58:57;5.40;99.90
23544;DHT22;11950;51.230;4.012;2022-12-07T05:01:23;5.40;99.90
23544;DHT22;11950;51.230;4.012;2022-12-07T05:03:50;5.40;99.90
23544;DHT22;11950;51.230;4.012;2022-12-07T05:06:17;5.40;99.90
23544;DHT22;11950;51.230;4.012;2022-12-07T05:08:45;5.40;99.90
23544;DHT22;11950;51.230;4.012;2022-12-07T05:11:12;5.50;99.90
23544;DHT22;11950;51.230;4.012;2022-12-07T05:13:57;5.50;99.90
23544;DHT22;11950;51.230;4.012;2022-12-07T05:16:23;5.50;99.90
23544;DHT22;11950;51.230;4.012;2022-12-07T05:18:50;5.50;99.90
23544;DHT22;11950;51.230;4.012;2022-12-07T05:21:16;5.50;99.90
23544;DHT22;11950;51.230;4.012;2022-12-07T05:23:43;5.50;99.90
23544;DHT22;11950;51.230;4.012;2022-12-07T05:26:09;5.50;99.90
23544;DHT22;11950;51.230;4.012;2022-12-07T05:28:35;5.50;99.90
23544;DHT22;11950;51.230;4.012;2022-12-07T05:31:02;5.50;99.90
23544;DHT22;11950;51.230;4.012;2022-12-07T05:33:29;5.50;99.90
23544;DHT22;11950;51.230;4.012;2022-12-07T05:35:55;5.50;99.90
23544;DHT22;11950;51.230;4.012;2022-12-07T05:38:21;5.40;99.90
23544;DHT22;11950;51.230;4.012;2022-12-07T05:40:47;5.40;99.90
23544;DHT22;11950;51.230;4.012;2022-12-07T05:43:14;5.40;99.90
23544;DHT22;11950;51.230;4.012;2022-12-07T05:45:40;5.30;99.90
23544;DHT22;11950;51.230;4.012;2022-12-07T05:48:06;5.40;99.90
23544;DHT22;11950;51.230;4.012;2022-12-07T05:50:32;5.50;99.90
23544;DHT22;11950;51.230;4.012;2022-12-07T05:53:02;5.40;99.90
23544;DHT22;11950;51.230;4.012;2022-12-07T05:55:28;5.40;99.90
23544;DHT22;11950;51.230;4.012;2022-12-07T05:57:54;5.40;99.90
23544;DHT22;11950;51.230;4.012;2022-12-07T06:00:39;5.50;99.90
23544;DHT22;11950;51.230;4.012;2022-12-07T06:03:05;5.50;99.90
23544;DHT22;11950;51.230;4.012;2022-12-07T06:05:31;5.50;99.90
23544;DHT22;11950;51.230;4.012;2022-12-07T06:07:58;5.60;99.90
23544;DHT22;11950;51.230;4.012;2022-12-07T06:10:24;5.50;99.90
23544;DHT22;11950;51.230;4.012;2022-12-07T06:12:50;5.50;99.90
23544;DHT22;11950;51.230;4.012;2022-12-07T06:15:16;5.60;99.90
23544;DHT22;11950;51.230;4.012;2022-12-07T06:17:43;5.60;99.90
23544;DHT22;11950;51.230;4.012;2022-12-07T06:20:09;5.70;99.90
23544;DHT22;11950;51.230;4.012;2022-12-07T06:22:35;5.70;99.90
23544;DHT22;11950;51.230;4.012;2022-12-07T06:25:02;5.70;99.90
23544;DHT22;11950;51.230;4.012;2022-12-07T06:27:29;5.70;99.90
23544;DHT22;11950;51.230;4.012;2022-12-07T06:29:56;5.70;99.90
23544;DHT22;11950;51.230;4.012;2022-12-07T06:32:22;5.80;99.90
23544;DHT22;11950;51.230;4.012;2022-12-07T06:34:48;5.80;99.90
23544;DHT22;11950;51.230;4.012;2022-12-07T06:37:14;5.80;99.90
23544;DHT22;11950;51.230;4.012;2022-12-07T06:39:41;5.80;99.90
23544;DHT22;11950;51.230;4.012;2022-12-07T06:42:07;5.70;99.90
23544;DHT22;11950;51.230;4.012;2022-12-07T06:44:33;5.60;99.90
23544;DHT22;11950;51.230;4.012;2022-12-07T06:46:59;5.60;99.90
23544;DHT22;11950;51.230;4.012;2022-12-07T06:49:26;5.50;99.90
23544;DHT22;11950;51.230;4.012;2022-12-07T06:51:52;5.50;99.90
23544;DHT22;11950;51.230;4.012;2022-12-07T06:54:19;5.50;99.90
23544;DHT22;11950;51.230;4.012;2022-12-07T06:56:45;5.40;99.90
23544;DHT22;11950;51.230;4.012;2022-12-07T06:59:11;5.40;99.90
23544;DHT22;11950;51.230;4.012;2022-12-07T07:01:37;5.30;99.90
23544;DHT22;11950;51.230;4.012;2022-12-07T07:04:04;5.30;99.90
23544;DHT22;11950;51.230;4.012;2022-12-07T07:06:30;5.30;99.90
23544;DHT22;11950;51.230;4.012;2022-12-07T07:08:57;5.40;99.90
23544;DHT22;11950;51.230;4.012;2022-12-07T07:11:23;5.30;99.90
23544;DHT22;11950;51.230;4.012;2022-12-07T07:13:49;5.30;99.90
23544;DHT22;11950;51.230;4.012;2022-12-07T07:16:16;5.40;99.90
23544;DHT22;11950;51.230;4.012;2022-12-07T07:18:42;5.30;99.90
23544;DHT22;11950;51.230;4.012;2022-12-07T07:21:08;5.40;99.90
23544;DHT22;11950;51.230;4.012;2022-12-07T07:23:35;5.30;99.90
23544;DHT22;11950;51.230;4.012;2022-12-07T07:26:01;5.40;99.90
23544;DHT22;11950;51.230;4.012;2022-12-07T07:28:27;5.40;99.90
23544;DHT22;11950;51.230;4.012;2022-12-07T07:30:54;5.40;99.90
23544;DHT22;11950;51.230;4.012;2022-12-07T07:33:20;5.40;99.90
23544;DHT22;11950;51.230;4.012;2022-12-07T07:35:46;5.40;99.90
23544;DHT22;11950;51.230;4.012;2022-12-07T07:38:12;5.50;99.90
23544;DHT22;11950;51.230;4.012;2022-12-07T07:40:39;5.50;99.90
23544;DHT22;11950;51.230;4.012;2022-12-07T07:43:05;5.50;99.90
23544;DHT22;11950;51.230;4.012;2022-12-07T07:45:31;5.60;99.90
23544;DHT22;11950;51.230;4.012;2022-12-07T07:47:58;5.50;99.90
23544;DHT22;11950;51.230;4.012;2022-12-07T07:50:24;5.60;99.90
23544;DHT22;11950;51.230;4.012;2022-12-07T07:52:51;5.70;99.90
23544;DHT22;11950;51.230;4.012;2022-12-07T07:55:18;5.70;99.90
23544;DHT22;11950;51.230;4.012;2022-12-07T07:57:44;5.70;99.90
23544;DHT22;11950;51.230;4.012;2022-12-07T08:00:12;5.80;99.90
23544;DHT22;11950;51.230;4.012;2022-12-07T08:02:39;5.90;99.90
23544;DHT22;11950;51.230;4.012;2022-12-07T08:05:06;5.90;99.90
23544;DHT22;11950;51.230;4.012;2022-12-07T08:07:33;6.00;99.90
23544;DHT22;11950;51.230;4.012;2022-12-07T08:09:59;6.00;99.90
23544;DHT22;11950;51.230;4.012;2022-12-07T08:12:26;6.10;99.90
23544;DHT22;11950;51.230;4.012;2022-12-07T08:14:53;6.10;99.90
23544;DHT22;11950;51.230;4.012;2022-12-07T08:17:19;6.10;99.90
23544;DHT22;11950;51.230;4.012;2022-12-07T08:19:45;6.10;99.90
23544;DHT22;11950;51.230;4.012;2022-12-07T08:22:12;6.20;99.90
23544;DHT22;11950;51.230;4.012;2022-12-07T08:24:38;6.20;99.90
23544;DHT22;11950;51.230;4.012;2022-12-07T08:27:04;6.30;99.90
23544;DHT22;11950;51.230;4.012;2022-12-07T08:29:40;6.30;99.90
23544;DHT22;11950;51.230;4.012;2022-12-07T08:32:06;6.30;99.90
23544;DHT22;11950;51.230;4.012;2022-12-07T08:34:33;6.30;99.90
23544;DHT22;11950;51.230;4.012;2022-12-07T08:37:00;6.30;99.90
23544;DHT22;11950;51.230;4.012;2022-12-07T08:39:26;6.30;99.90
23544;DHT22;11950;51.230;4.012;2022-12-07T08:41:52;6.30;99.90
23544;DHT22;11950;51.230;4.012;2022-12-07T08:44:19;6.30;99.90
23544;DHT22;11950;51.230;4.012;2022-12-07T08:46:52;6.30;99.90
23544;DHT22;11950;51.230;4.012;2022-12-07T08:49:23;6.40;99.90
23544;DHT22;11950;51.230;4.012;2022-12-07T08:51:51;6.50;99.90
23544;DHT22;11950;51.230;4.012;2022-12-07T08:54:18;6.50;99.90
23544;DHT22;11950;51.230;4.012;2022-12-07T08:56:46;6.60;99.90
23544;DHT22;11950;51.230;4.012;2022-12-07T08:59:15;6.60;99.90
23544;DHT22;11950;51.230;4.012;2022-12-07T09:01:43;6.60;99.90
23544;DHT22;11950;51.230;4.012;2022-12-07T09:04:09;6.70;99.90
23544;DHT22;11950;51.230;4.012;2022-12-07T09:06:35;6.70;99.90
23544;DHT22;11950;51.230;4.012;2022-12-07T09:09:03;6.80;99.90
23544;DHT22;11950;51.230;4.012;2022-12-07T09:11:29;6.80;99.90
23544;DHT22;11950;51.230;4.012;2022-12-07T09:13:56;6.90;99.90
23544;DHT22;11950;51.230;4.012;2022-12-07T09:16:22;6.90;99.90
23544;DHT22;11950;51.230;4.012;2022-12-07T09:18:48;7.00;99.90
23544;DHT22;11950;51.230;4.012;2022-12-07T09:21:15;7.00;99.90
23544;DHT22;11950;51.230;4.012;2022-12-07T09:23:41;7.00;99.90
23544;DHT22;11950;51.230;4.012;2022-12-07T09:26:08;7.10;99.90
23544;DHT22;11950;51.230;4.012;2022-12-07T09:28:34;7.10;99.90
23544;DHT22;11950;51.230;4.012;2022-12-07T09:31:02;7.10;99.90
23544;DHT22;11950;51.230;4.012;2022-12-07T09:33:29;7.10;99.90
23544;DHT22;11950;51.230;4.012;2022-12-07T09:35:55;7.10;99.90
23544;DHT22;11950;51.230;4.012;2022-12-07T09:38:22;7.10;99.90
23544;DHT22;11950;51.230;4.012;2022-12-07T09:40:48;7.10;99.90
23544;DHT22;11950;51.230;4.012;2022-12-07T09:43:19;7.10;99.90
23544;DHT22;11950;51.230;4.012;2022-12-07T09:45:49;7.10;99.90
23544;DHT22;11950;51.230;4.012;2022-12-07T09:48:36;7.10;99.90
23544;DHT22;11950;51.230;4.012;2022-12-07T09:51:23;7.20;99.90
23544;DHT22;11950;51.230;4.012;2022-12-07T09:53:51;7.20;99.90
23544;DHT22;11950;51.230;4.012;2022-12-07T09:56:18;7.20;99.90
23544;DHT22;11950;51.230;4.012;2022-12-07T09:58:46;7.20;99.90
23544;DHT22;11950;51.230;4.012;2022-12-07T10:01:16;7.30;99.90
23544;DHT22;11950;51.230;4.012;2022-12-07T10:03:50;7.30;99.90
23544;DHT22;11950;51.230;4.012;2022-12-07T10:06:17;7.30;99.90
23544;DHT22;11950;51.230;4.012;2022-12-07T10:08:43;7.40;99.90
23544;DHT22;11950;51.230;4.012;2022-12-07T10:11:10;7.60;99.90
23544;DHT22;11950;51.230;4.012;2022-12-07T10:13:39;7.70;99.90
23544;DHT22;11950;51.230;4.012;2022-12-07T10:16:28;7.80;99.90
23544;DHT22;11950;51.230;4.012;2022-12-07T10:18:57;7.90;99.90
23544;DHT22;11950;51.230;4.012;2022-12-07T10:24:25;8.10;99.90
23544;DHT22;11950;51.230;4.012;2022-12-07T10:26:52;8.10;99.90
23544;DHT22;11950;51.230;4.012;2022-12-07T10:29:34;8.10;99.90
23544;DHT22;11950;51.230;4.012;2022-12-07T10:32:03;8.20;99.90
23544;DHT22;11950;51.230;4.012;2022-12-07T10:34:32;8.20;99.90
23544;DHT22;11950;51.230;4.012;2022-12-07T10:44:45;8.30;99.90
23544;DHT22;11950;51.230;4.012;2022-12-07T10:47:34;8.40;99.90
23544;DHT22;11950;51.230;4.012;2022-12-07T11:14:17;8.50;99.90
23544;DHT22;11950;51.230;4.012;2022-12-07T11:17:03;8.60;99.90
23544;DHT22;11950;51.230;4.012;2022-12-07T11:22:51;8.70;99.90
23544;DHT22;11950;51.230;4.012;2022-12-07T11:28:21;8.80;99.90
23544;DHT22;11950;51.230;4.012;2022-12-07T11:33:47;8.90;99.90
23544;DHT22;11950;51.230;4.012;2022-12-07T11:39:00;8.90;99.90
23544;DHT22;11950;51.230;4.012;2022-12-07T11:41:31;9.00;99.90
23544;DHT22;11950;51.230;4.012;2022-12-07T11:44:23;9.00;99.90
23544;DHT22;11950;51.230;4.012;2022-12-07T11:50:03;9.10;99.90
23544;DHT22;11950;51.230;4.012;2022-12-07T12:06:34;9.10;99.90
23544;DHT22;11950;51.230;4.012;2022-12-07T12:09:23;9.20;99.90
23544;DHT22;11950;51.230;4.012;2022-12-07T12:18:32;9.10;99.90
23544;DHT22;11950;51.230;4.012;2022-12-07T12:21:15;9.10;99.90
23544;DHT22;11950;51.230;4.012;2022-12-07T12:23:45;9.10;99.90
23544;DHT22;11950;51.230;4.012;2022-12-07T12:26:21;9.20;99.90
23544;DHT22;11950;51.230;4.012;2022-12-07T12:33:52;9.30;99.90
23544;DHT22;11950;51.230;4.012;2022-12-07T12:36:26;9.30;99.90
23544;DHT22;11950;51.230;4.012;2022-12-07T12:39:12;9.30;99.90
23544;DHT22;11950;51.230;4.012;2022-12-07T12:46:53;8.90;99.90
23544;DHT22;11950;51.230;4.012;2022-12-07T12:51:53;8.70;99.90
23544;DHT22;11950;51.230;4.012;2022-12-07T12:54:25;8.70;99.90
23544;DHT22;11950;51.230;4.012;2022-12-07T13:02:36;8.50;99.90
23544;DHT22;11950;51.230;4.012;2022-12-07T13:15:49;8.60;99.90
23544;DHT22;11950;51.230;4.012;2022-12-07T13:23:31;8.60;99.90
23544;DHT22;11950;51.230;4.012;2022-12-07T13:34:03;8.60;99.90
23544;DHT22;11950;51.230;4.012;2022-12-07T13:36:33;8.50;99.90
23544;DHT22;11950;51.230;4.012;2022-12-07T13:39:32;8.50;99.90
23544;DHT22;11950;51.230;4.012;2022-12-07T13:41:59;8.50;99.90
23544;DHT22;11950;51.230;4.012;2022-12-07T13:44:39;8.40;99.90
23544;DHT22;11950;51.230;4.012;2022-12-07T13:49:53;8.40;99.90
23544;DHT22;11950;51.230;4.012;2022-12-07T13:52:22;8.40;99.90
23544;DHT22;11950;51.230;4.012;2022-12-07T13:55:01;8.40;99.90
23544;DHT22;11950;51.230;4.012;2022-12-07T13:57:29;8.40;99.90
23544;DHT22;11950;51.230;4.012;2022-12-07T14:00:02;8.50;99.90
23544;DHT22;11950;51.230;4.012;2022-12-07T14:02:33;8.50;99.90
23544;DHT22;11950;51.230;4.012;2022-12-07T14:05:23;8.50;99.90
23544;DHT22;11950;51.230;4.012;2022-12-07T14:08:01;8.60;99.90
23544;DHT22;11950;51.230;4.012;2022-12-07T14:12:55;8.60;99.90
23544;DHT22;11950;51.230;4.012;2022-12-07T14:15:26;8.70;99.90
23544;DHT22;11950;51.230;4.012;2022-12-07T14:17:55;8.70;99.90
23544;DHT22;11950;51.230;4.012;2022-12-07T14:20:38;8.70;99.90
23544;DHT22;11950;51.230;4.012;2022-12-07T14:23:21;8.70;99.90
23544;DHT22;11950;51.230;4.012;2022-12-07T14:25:50;8.70;99.90
23544;DHT22;11950;51.230;4.012;2022-12-07T14:28:27;8.60;99.90
23544;DHT22;11950;51.230;4.012;2022-12-07T14:30:53;8.60;99.90
23544;DHT22;11950;51.230;4.012;2022-12-07T14:33:20;8.60;99.90
23544;DHT22;11950;51.230;4.012;2022-12-07T14:35:47;8.60;99.90
23544;DHT22;11950;51.230;4.012;2022-12-07T14:38:15;8.60;99.90
23544;DHT22;11950;51.230;4.012;2022-12-07T14:40:41;8.50;99.90
23544;DHT22;11950;51.230;4.012;2022-12-07T14:43:12;8.50;99.90
23544;DHT22;11950;51.230;4.012;2022-12-07T14:45:40;8.50;99.90
23544;DHT22;11950;51.230;4.012;2022-12-07T14:48:14;8.40;99.90
23544;DHT22;11950;51.230;4.012;2022-12-07T14:50:46;8.40;99.90
23544;DHT22;11950;51.230;4.012;2022-12-07T14:53:21;8.40;99.90
23544;DHT22;11950;51.230;4.012;2022-12-07T14:55:50;8.40;99.90
23544;DHT22;11950;51.230;4.012;2022-12-07T14:58:18;8.40;99.90
23544;DHT22;11950;51.230;4.012;2022-12-07T15:00:44;8.30;99.90
23544;DHT22;11950;51.230;4.012;2022-12-07T15:03:11;8.20;99.90
23544;DHT22;11950;51.230;4.012;2022-12-07T15:05:39;8.20;99.90
23544;DHT22;11950;51.230;4.012;2022-12-07T15:08:09;8.10;99.90
23544;DHT22;11950;51.230;4.012;2022-12-07T15:10:36;8.10;99.90
23544;DHT22;11950;51.230;4.012;2022-12-07T15:13:05;8.00;99.90
23544;DHT22;11950;51.230;4.012;2022-12-07T15:15:51;7.90;99.90
23544;DHT22;11950;51.230;4.012;2022-12-07T15:18:19;7.90;99.90
23544;DHT22;11950;51.230;4.012;2022-12-07T15:20:46;7.80;99.90
23544;DHT22;11950;51.230;4.012;2022-12-07T15:23:13;7.80;99.90
23544;DHT22;11950;51.230;4.012;2022-12-07T15:25:43;7.80;99.90
23544;DHT22;11950;51.230;4.012;2022-12-07T15:28:10;7.70;99.90
23544;DHT22;11950;51.230;4.012;2022-12-07T15:30:38;7.70;99.90
23544;DHT22;11950;51.230;4.012;2022-12-07T15:33:04;7.60;99.90
23544;DHT22;11950;51.230;4.012;2022-12-07T15:35:31;7.60;99.90
23544;DHT22;11950;51.230;4.012;2022-12-07T15:37:57;7.60;99.90
23544;DHT22;11950;51.230;4.012;2022-12-07T15:40:23;7.60;99.90
23544;DHT22;11950;51.230;4.012;2022-12-07T15:42:50;7.60;99.90
23544;DHT22;11950;51.230;4.012;2022-12-07T15:45:17;7.70;99.90
23544;DHT22;11950;51.230;4.012;2022-12-07T15:47:44;7.70;99.90
23544;DHT22;11950;51.230;4.012;2022-12-07T15:50:15;7.70;99.90
23544;DHT22;11950;51.230;4.012;2022-12-07T15:52:42;7.70;99.90
23544;DHT22;11950;51.230;4.012;2022-12-07T15:55:09;7.60;99.90
23544;DHT22;11950;51.230;4.012;2022-12-07T15:57:37;7.60;99.90
23544;DHT22;11950;51.230;4.012;2022-12-07T16:00:05;7.60;99.90
23544;DHT22;11950;51.230;4.012;2022-12-07T16:02:36;7.60;99.90
23544;DHT22;11950;51.230;4.012;2022-12-07T16:05:02;7.60;99.90
23544;DHT22;11950;51.230;4.012;2022-12-07T16:07:29;7.70;99.90
23544;DHT22;11950;51.230;4.012;2022-12-07T16:09:56;7.70;99.90
23544;DHT22;11950;51.230;4.012;2022-12-07T16:12:22;7.70;99.90
23544;DHT22;11950;51.230;4.012;2022-12-07T16:14:48;7.60;99.90
23544;DHT22;11950;51.230;4.012;2022-12-07T16:17:14;7.60;99.90
23544;DHT22;11950;51.230;4.012;2022-12-07T16:19:41;7.60;99.90
23544;DHT22;11950;51.230;4.012;2022-12-07T16:22:07;7.50;99.90
23544;DHT22;11950;51.230;4.012;2022-12-07T16:24:33;7.50;99.90
23544;DHT22;11950;51.230;4.012;2022-12-07T16:27:00;7.60;99.90
23544;DHT22;11950;51.230;4.012;2022-12-07T16:29:26;7.40;99.90
23544;DHT22;11950;51.230;4.012;2022-12-07T16:31:52;7.40;99.90
23544;DHT22;11950;51.230;4.012;2022-12-07T16:34:19;7.30;99.90
23544;DHT22;11950;51.230;4.012;2022-12-07T16:36:45;7.30;99.90
23544;DHT22;11950;51.230;4.012;2022-12-07T16:39:12;7.30;99.90
23544;DHT22;11950;51.230;4.012;2022-12-07T16:41:38;7.30;99.90
23544;DHT22;11950;51.230;4.012;2022-12-07T16:44:07;7.30;99.90
23544;DHT22;11950;51.230;4.012;2022-12-07T16:46:35;7.20;99.90
23544;DHT22;11950;51.230;4.012;2022-12-07T16:49:02;7.20;99.90
23544;DHT22;11950;51.230;4.012;2022-12-07T16:51:29;7.20;99.90
23544;DHT22;11950;51.230;4.012;2022-12-07T16:53:55;7.20;99.90
23544;DHT22;11950;51.230;4.012;2022-12-07T16:56:21;7.20;99.90
23544;DHT22;11950;51.230;4.012;2022-12-07T16:58:48;7.20;99.90
23544;DHT22;11950;51.230;4.012;2022-12-07T17:01:20;7.20;99.90
23544;DHT22;11950;51.230;4.012;2022-12-07T17:03:48;7.20;99.90
23544;DHT22;11950;51.230;4.012;2022-12-07T17:06:23;7.20;99.90
23544;DHT22;11950;51.230;4.012;2022-12-07T17:08:51;7.10;99.90
23544;DHT22;11950;51.230;4.012;2022-12-07T17:11:26;7.00;99.90
23544;DHT22;11950;51.230;4.012;2022-12-07T17:13:53;7.00;99.90
23544;DHT22;11950;51.230;4.012;2022-12-07T17:16:38;7.00;99.90
23544;DHT22;11950;51.230;4.012;2022-12-07T17:19:09;6.90;99.90
23544;DHT22;11950;51.230;4.012;2022-12-07T17:21:36;6.90;99.90
23544;DHT22;11950;51.230;4.012;2022-12-07T17:24:05;6.80;99.90
23544;DHT22;11950;51.230;4.012;2022-12-07T17:26:33;6.80;99.90
23544;DHT22;11950;51.230;4.012;2022-12-07T17:28:59;6.80;99.90
23544;DHT22;11950;51.230;4.012;2022-12-07T17:31:26;6.80;99.90
23544;DHT22;11950;51.230;4.012;2022-12-07T17:33:52;6.80;99.90
23544;DHT22;11950;51.230;4.012;2022-12-07T17:36:21;6.80;99.90
23544;DHT22;11950;51.230;4.012;2022-12-07T17:38:49;6.80;99.90
23544;DHT22;11950;51.230;4.012;2022-12-07T17:41:24;6.80;99.90
23544;DHT22;11950;51.230;4.012;2022-12-07T17:44:11;6.80;99.90
23544;DHT22;11950;51.230;4.012;2022-12-07T17:46:38;6.90;99.90
23544;DHT22;11950;51.230;4.012;2022-12-07T17:49:05;6.80;99.90
23544;DHT22;11950;51.230;4.012;2022-12-07T17:51:32;6.80;99.90
23544;DHT22;11950;51.230;4.012;2022-12-07T17:54:17;6.80;99.90
23544;DHT22;11950;51.230;4.012;2022-12-07T17:56:44;6.80;99.90
23544;DHT22;11950;51.230;4.012;2022-12-07T17:59:10;6.80;99.90
23544;DHT22;11950;51.230;4.012;2022-12-07T18:01:37;6.80;99.90
23544;DHT22;11950;51.230;4.012;2022-12-07T18:04:04;6.80;99.90
23544;DHT22;11950;51.230;4.012;2022-12-07T18:06:31;6.90;99.90
23544;DHT22;11950;51.230;4.012;2022-12-07T18:08:58;6.90;99.90
23544;DHT22;11950;51.230;4.012;2022-12-07T18:11:24;6.90;99.90
23544;DHT22;11950;51.230;4.012;2022-12-07T18:13:51;6.90;99.90
23544;DHT22;11950;51.230;4.012;2022-12-07T18:16:20;6.90;99.90
23544;DHT22;11950;51.230;4.012;2022-12-07T18:18:48;7.00;99.90
23544;DHT22;11950;51.230;4.012;2022-12-07T18:21:17;6.90;99.90
23544;DHT22;11950;51.230;4.012;2022-12-07T18:23:47;6.90;99.90
23544;DHT22;11950;51.230;4.012;2022-12-07T18:26:15;6.90;99.90
23544;DHT22;11950;51.230;4.012;2022-12-07T18:28:42;6.90;99.90
23544;DHT22;11950;51.230;4.012;2022-12-07T18:31:09;6.90;99.90
23544;DHT22;11950;51.230;4.012;2022-12-07T18:33:36;6.90;99.90